Hellebaek, Denmark
Current Conditions -  °F | °C
As of 5:50 PM on Saturday 25 Oct 2014 (Local Time) from ESTA Reporting Station
Drizzle Drizzle  
Wind Chill: 52°   Ceiling: 600
Heat Index: 52°   Visibility: 1.6mi
Dew Point: 50°   Wind: 9mph
Humidity: 94%   Direction: 160°SSE
Pressure: 30"   Gusts: NA
Location:  56.07°N, 12.56°E
Report Text: ESTA 251550Z AUTO 16008KT 2600 DZ VV006 11/10 Q1016 REDZ
Loading
Personal Weather Stations






























Interactive Weather Map
Tropical Storm Tracking
New forecast layout! Learn more

10-Day Weather Forecast

Advertisements
Track Severe Weather on mobile